Terminal Aerodrome Forecast
Issued by NWS Central Illinois

Home | Current Version | Previous Version | Text Only | Print | Product List | Glossary On
Versions: 1 2 3 4 5 6 7 8 9 10 11 12 13 14
000
FTUS43 KILX 031736
TAFSPI
TAF
KSPI 031736Z 0318/0418 02007KT P6SM SCT035 BKN110
      TEMPO 0318/0321 BKN030
     FM032100 04006KT P6SM BKN045
     FM040100 03004KT P6SM SCT100
     FM040900 VRB02KT 4SM BR SCT250
     FM041500 VRB03KT P6SM FEW030 SCT250=

USA.gov is the U.S. government's official web portal to all federal, state and local government web resources and services.